»·PEaware :: N721AS KBFL-KMHV

N721AS :: KBFL-KMHV

FLIGHT INFORMATION

Flight Status: Arrived
Operator: Privately registered:
United States
More flights under this callsign
Pilot: Michael N. (17635)
Aircraft: CESSNA 172RG CUTLASS
(C72R)
More flights by this aircraft type
Origin: KBFL Meadows
United States
Destination: KMHV Mojave
United States
More flights between these airports :: More routes between these airports
Route: DCT
File this flight plan on PilotEdge
Remarks: Cat6
Altitude:
(Current/Filed)
7,500ft
Speed:
(Current/Filed)
140kts
Departed: 08-Jan-18 07:16 PM
Arrived: 08-Jan-18 07:48 PM
Distance/Time
Traveled:
1nm/0:32
Distance/Time
To Go:
Arrived

Flight Plot

Page will automatically refresh every two minutes.


Map Options




Map Legend


Flown Route
Filed Route
Departure Airport
Arrival Airport
Navaid (VOR, NDB)
Fix

Horizontal Profiles

Position Reports

Time Latitude Longitude Heading Altitude Ground
Speed
08-Jan-18 18:58 35.433108 -119.045055 137 511ft 0kts
08-Jan-18 18:59 35.433108 -119.045055 137 511ft 0kts
08-Jan-18 19:00 35.433108 -119.045055 137 511ft 0kts
08-Jan-18 19:01 35.433108 -119.045055 137 511ft 0kts
08-Jan-18 19:02 35.433108 -119.045055 137 511ft 0kts
08-Jan-18 19:03 35.433108 -119.045055 137 511ft 0kts
08-Jan-18 19:04 35.433107 -119.045055 137 511ft 0kts
08-Jan-18 19:05 35.433107 -119.045055 137 511ft 0kts
08-Jan-18 19:06 35.433107 -119.045055 137 511ft 0kts
08-Jan-18 19:07 35.433107 -119.045055 137 511ft 0kts
08-Jan-18 19:08 35.433107 -119.045055 137 511ft 0kts
08-Jan-18 19:09 35.433107 -119.045055 137 511ft 0kts
08-Jan-18 19:10 35.433107 -119.045055 137 511ft 0kts
08-Jan-18 19:11 35.433107 -119.045055 137 511ft 0kts
08-Jan-18 19:12 35.432903 -119.045318 241 511ft 8kts
08-Jan-18 19:13 35.433219 -119.047327 318 511ft 7kts
08-Jan-18 19:14 35.434503 -119.050746 268 511ft 14kts
08-Jan-18 19:15 35.433288 -119.053087 319 510ft 4kts
08-Jan-18 19:16 35.435578 -119.055822 315 511ft 22kts
08-Jan-18 19:17 35.440288 -119.061455 315 511ft 22kts
08-Jan-18 19:18 35.444457 -119.066436 315 511ft 19kts
08-Jan-18 19:19 35.447006 -119.070028 223 510ft 5kts
08-Jan-18 19:20 35.446556 -119.070563 224 511ft 0kts
08-Jan-18 19:21 35.446376 -119.070778 223 510ft 3kts
08-Jan-18 19:22 35.440753 -119.064297 132 571ft 78kts
08-Jan-18 19:23 35.428543 -119.041594 111 1438ft 82kts
08-Jan-18 19:24 35.420176 -119.014942 112 2160ft 80kts
08-Jan-18 19:25 35.412618 -118.984518 113 2638ft 104kts
08-Jan-18 19:26 35.404868 -118.951899 110 3306ft 97kts
08-Jan-18 19:27 35.397987 -118.926051 112 3904ft 94kts
08-Jan-18 19:28 35.389000 -118.889958 113 4766ft 97kts
08-Jan-18 19:29 35.382764 -118.863200 117 5353ft 98kts
08-Jan-18 19:30 35.374671 -118.825627 111 6217ft 96kts
08-Jan-18 19:31 35.369915 -118.798582 111 6769ft 98kts
08-Jan-18 19:32 35.365014 -118.759467 107 7474ft 103kts
08-Jan-18 19:33 35.359940 -118.726081 110 7533ft 129kts
08-Jan-18 19:34 35.350288 -118.673852 113 7475ft 139kts
08-Jan-18 19:35 35.340037 -118.635329 120 6839ft 140kts
08-Jan-18 19:36 35.326220 -118.597460 113 7308ft 110kts
08-Jan-18 19:37 35.314233 -118.560484 111 7471ft 130kts
08-Jan-18 19:38 35.300642 -118.519190 108 7497ft 138kts
08-Jan-18 19:39 35.286578 -118.474989 112 7466ft 138kts
08-Jan-18 19:40 35.270130 -118.432585 118 7502ft 136kts
08-Jan-18 19:41 35.254232 -118.389651 116 7489ft 135kts
08-Jan-18 19:42 35.237392 -118.347751 117 7474ft 137kts
08-Jan-18 19:43 35.222556 -118.304212 115 7418ft 139kts
08-Jan-18 19:44 35.206413 -118.261802 113 7474ft 136kts
08-Jan-18 19:45 35.191644 -118.218364 110 7414ft 141kts
08-Jan-18 19:46 35.171737 -118.177914 158 6953ft 144kts
08-Jan-18 19:47 35.131687 -118.170097 172 5890ft 147kts
08-Jan-18 19:48 35.114118 -118.152591 344 4802ft 138kts
08-Jan-18 19:49 35.117721 -118.187826 215 4285ft 123kts
08-Jan-18 19:50 35.097135 -118.164986 109 3750ft 117kts
08-Jan-18 19:51 35.078778 -118.162285 223 3451ft 94kts
08-Jan-18 19:52 35.058993 -118.181773 213 3242ft 92kts
08-Jan-18 19:53 35.059220 -118.163742 87 2821ft 70kts
08-Jan-18 19:54 35.057637 -118.156307 178 2795ft 11kts
08-Jan-18 19:55 35.056492 -118.156861 270 2795ft 0kts
08-Jan-18 19:56 35.056492 -118.156861 270 2795ft 0kts
08-Jan-18 19:57 35.056492 -118.156861 270 2795ft 0kts
08-Jan-18 19:58 35.056492 -118.156861 270 2795ft 0kts
08-Jan-18 19:59 35.056492 -118.156861 270 2795ft 0kts
08-Jan-18 20:00 35.056492 -118.156861 270 2795ft 0kts
08-Jan-18 20:01 35.056492 -118.156861 270 2795ft 0kts
08-Jan-18 20:02 35.056492 -118.156861 270 2795ft 0kts
08-Jan-18 20:03 35.056492 -118.156861 270 2795ft 0kts
08-Jan-18 20:04 35.056492 -118.156861 270 2795ft 0kts
08-Jan-18 20:05 35.056492 -118.156861 270 2795ft 0kts
08-Jan-18 20:08 35.429146 -119.044879 45 511ft 0kts
08-Jan-18 20:09 35.429146 -119.044879 45 511ft 0kts

Navigation Log

Ident Type
1. KBFL Airport
2. KMHV Airport